sensor_id;sensor_type;location;lat;lon;timestamp;P1;durP1;ratioP1;P2;durP2;ratioP2
29044;SDS011;16133;49.486;12.176;2023-05-29T00:02:03;8.85;;;3.60;;
29044;SDS011;16133;49.486;12.176;2023-05-29T00:04:28;9.73;;;3.30;;
29044;SDS011;16133;49.486;12.176;2023-05-29T00:06:54;9.32;;;3.75;;
29044;SDS011;16133;49.486;12.176;2023-05-29T00:09:20;10.35;;;3.97;;
29044;SDS011;16133;49.486;12.176;2023-05-29T00:11:46;9.32;;;4.00;;
29044;SDS011;16133;49.486;12.176;2023-05-29T00:14:15;7.78;;;3.58;;
29044;SDS011;16133;49.486;12.176;2023-05-29T00:16:44;9.38;;;3.45;;
29044;SDS011;16133;49.486;12.176;2023-05-29T00:19:09;4.63;;;3.05;;
29044;SDS011;16133;49.486;12.176;2023-05-29T00:21:34;7.53;;;3.03;;
29044;SDS011;16133;49.486;12.176;2023-05-29T00:24:00;9.15;;;3.08;;
29044;SDS011;16133;49.486;12.176;2023-05-29T00:26:25;6.93;;;4.00;;
29044;SDS011;16133;49.486;12.176;2023-05-29T00:28:51;5.82;;;3.47;;
29044;SDS011;16133;49.486;12.176;2023-05-29T00:31:16;5.75;;;3.55;;
29044;SDS011;16133;49.486;12.176;2023-05-29T00:33:42;7.38;;;3.78;;
29044;SDS011;16133;49.486;12.176;2023-05-29T00:36:08;6.28;;;3.35;;
29044;SDS011;16133;49.486;12.176;2023-05-29T00:38:33;6.60;;;3.55;;
29044;SDS011;16133;49.486;12.176;2023-05-29T00:40:58;9.65;;;4.18;;
29044;SDS011;16133;49.486;12.176;2023-05-29T00:43:24;9.32;;;3.72;;
29044;SDS011;16133;49.486;12.176;2023-05-29T00:45:49;5.80;;;3.53;;
29044;SDS011;16133;49.486;12.176;2023-05-29T00:48:15;7.30;;;3.35;;
29044;SDS011;16133;49.486;12.176;2023-05-29T00:50:42;6.28;;;3.53;;
29044;SDS011;16133;49.486;12.176;2023-05-29T00:53:11;9.38;;;3.50;;
29044;SDS011;16133;49.486;12.176;2023-05-29T00:55:38;7.75;;;4.38;;
29044;SDS011;16133;49.486;12.176;2023-05-29T00:58:04;7.03;;;3.22;;
29044;SDS011;16133;49.486;12.176;2023-05-29T01:00:29;8.25;;;3.63;;
29044;SDS011;16133;49.486;12.176;2023-05-29T01:02:55;9.55;;;3.33;;
29044;SDS011;16133;49.486;12.176;2023-05-29T01:05:23;7.60;;;3.45;;
29044;SDS011;16133;49.486;12.176;2023-05-29T01:07:48;7.53;;;3.92;;
29044;SDS011;16133;49.486;12.176;2023-05-29T01:10:14;7.22;;;3.40;;
29044;SDS011;16133;49.486;12.176;2023-05-29T01:15:46;6.43;;;3.58;;
29044;SDS011;16133;49.486;12.176;2023-05-29T01:18:37;7.22;;;3.90;;
29044;SDS011;16133;49.486;12.176;2023-05-29T01:29:06;7.55;;;3.53;;
29044;SDS011;16133;49.486;12.176;2023-05-29T01:31:32;6.93;;;3.38;;
29044;SDS011;16133;49.486;12.176;2023-05-29T01:33:59;6.55;;;3.55;;
29044;SDS011;16133;49.486;12.176;2023-05-29T01:36:25;9.32;;;3.53;;
29044;SDS011;16133;49.486;12.176;2023-05-29T01:38:52;8.23;;;4.10;;
29044;SDS011;16133;49.486;12.176;2023-05-29T01:41:20;7.45;;;3.88;;
29044;SDS011;16133;49.486;12.176;2023-05-29T01:43:47;9.02;;;3.80;;
29044;SDS011;16133;49.486;12.176;2023-05-29T01:46:14;10.05;;;3.70;;
29044;SDS011;16133;49.486;12.176;2023-05-29T01:48:41;9.30;;;4.28;;
29044;SDS011;16133;49.486;12.176;2023-05-29T01:51:07;9.13;;;4.22;;
29044;SDS011;16133;49.486;12.176;2023-05-29T01:53:37;9.05;;;3.45;;
29044;SDS011;16133;49.486;12.176;2023-05-29T01:56:06;7.10;;;4.07;;
29044;SDS011;16133;49.486;12.176;2023-05-29T01:58:33;5.85;;;3.30;;
29044;SDS011;16133;49.486;12.176;2023-05-29T02:01:00;7.65;;;3.47;;
29044;SDS011;16133;49.486;12.176;2023-05-29T02:03:28;7.45;;;3.95;;
29044;SDS011;16133;49.486;12.176;2023-05-29T02:05:54;7.57;;;3.33;;
29044;SDS011;16133;49.486;12.176;2023-05-29T02:08:21;8.93;;;3.38;;
29044;SDS011;16133;49.486;12.176;2023-05-29T02:10:46;8.13;;;3.38;;
29044;SDS011;16133;49.486;12.176;2023-05-29T02:13:11;11.07;;;3.95;;
29044;SDS011;16133;49.486;12.176;2023-05-29T02:15:37;10.45;;;4.47;;
29044;SDS011;16133;49.486;12.176;2023-05-29T02:18:02;9.82;;;3.88;;
29044;SDS011;16133;49.486;12.176;2023-05-29T02:20:27;8.70;;;4.43;;
29044;SDS011;16133;49.486;12.176;2023-05-29T02:22:53;7.75;;;4.20;;
29044;SDS011;16133;49.486;12.176;2023-05-29T02:25:18;8.02;;;4.05;;
29044;SDS011;16133;49.486;12.176;2023-05-29T02:27:44;9.38;;;3.72;;
29044;SDS011;16133;49.486;12.176;2023-05-29T02:30:09;8.50;;;4.70;;
29044;SDS011;16133;49.486;12.176;2023-05-29T02:32:35;9.32;;;4.15;;
29044;SDS011;16133;49.486;12.176;2023-05-29T02:35:01;9.98;;;4.50;;
29044;SDS011;16133;49.486;12.176;2023-05-29T02:37:26;8.18;;;4.57;;
29044;SDS011;16133;49.486;12.176;2023-05-29T02:39:53;6.78;;;3.75;;
29044;SDS011;16133;49.486;12.176;2023-05-29T02:42:18;9.63;;;4.00;;
29044;SDS011;16133;49.486;12.176;2023-05-29T02:44:43;10.63;;;4.40;;
29044;SDS011;16133;49.486;12.176;2023-05-29T02:47:09;8.82;;;3.75;;
29044;SDS011;16133;49.486;12.176;2023-05-29T02:49:34;10.50;;;4.53;;
29044;SDS011;16133;49.486;12.176;2023-05-29T02:52:00;6.88;;;3.78;;
29044;SDS011;16133;49.486;12.176;2023-05-29T02:54:25;8.02;;;4.65;;
29044;SDS011;16133;49.486;12.176;2023-05-29T02:56:51;7.85;;;4.45;;
29044;SDS011;16133;49.486;12.176;2023-05-29T02:59:17;12.18;;;5.45;;
29044;SDS011;16133;49.486;12.176;2023-05-29T03:01:42;8.75;;;4.53;;
29044;SDS011;16133;49.486;12.176;2023-05-29T03:04:09;10.32;;;4.43;;
29044;SDS011;16133;49.486;12.176;2023-05-29T03:06:37;10.55;;;4.60;;
29044;SDS011;16133;49.486;12.176;2023-05-29T03:09:03;7.07;;;4.18;;
29044;SDS011;16133;49.486;12.176;2023-05-29T03:11:30;9.45;;;4.70;;
29044;SDS011;16133;49.486;12.176;2023-05-29T03:13:56;10.07;;;4.80;;
29044;SDS011;16133;49.486;12.176;2023-05-29T03:16:21;9.98;;;5.00;;
29044;SDS011;16133;49.486;12.176;2023-05-29T03:18:47;12.90;;;5.07;;
29044;SDS011;16133;49.486;12.176;2023-05-29T03:21:12;6.18;;;3.95;;
29044;SDS011;16133;49.486;12.176;2023-05-29T03:23:39;8.75;;;4.70;;
29044;SDS011;16133;49.486;12.176;2023-05-29T03:26:04;10.85;;;5.20;;
29044;SDS011;16133;49.486;12.176;2023-05-29T03:28:30;8.30;;;4.82;;
29044;SDS011;16133;49.486;12.176;2023-05-29T03:30:56;14.85;;;5.88;;
29044;SDS011;16133;49.486;12.176;2023-05-29T03:33:21;10.32;;;4.80;;
29044;SDS011;16133;49.486;12.176;2023-05-29T03:35:47;9.95;;;5.07;;
29044;SDS011;16133;49.486;12.176;2023-05-29T03:38:12;7.88;;;4.35;;
29044;SDS011;16133;49.486;12.176;2023-05-29T03:40:37;9.00;;;4.70;;
29044;SDS011;16133;49.486;12.176;2023-05-29T03:43:03;12.93;;;5.00;;
29044;SDS011;16133;49.486;12.176;2023-05-29T03:45:28;9.07;;;5.07;;
29044;SDS011;16133;49.486;12.176;2023-05-29T03:47:54;12.15;;;5.20;;
29044;SDS011;16133;49.486;12.176;2023-05-29T03:50:19;9.63;;;4.47;;
29044;SDS011;16133;49.486;12.176;2023-05-29T03:52:44;10.50;;;4.88;;
29044;SDS011;16133;49.486;12.176;2023-05-29T03:55:10;9.63;;;4.85;;
29044;SDS011;16133;49.486;12.176;2023-05-29T03:57:39;10.02;;;4.68;;
29044;SDS011;16133;49.486;12.176;2023-05-29T04:00:06;7.38;;;3.83;;
29044;SDS011;16133;49.486;12.176;2023-05-29T04:02:36;8.73;;;4.90;;
29044;SDS011;16133;49.486;12.176;2023-05-29T04:05:05;9.63;;;5.18;;
29044;SDS011;16133;49.486;12.176;2023-05-29T04:07:32;8.88;;;4.07;;
29044;SDS011;16133;49.486;12.176;2023-05-29T04:09:58;12.35;;;4.68;;
29044;SDS011;16133;49.486;12.176;2023-05-29T04:12:23;12.85;;;4.68;;
29044;SDS011;16133;49.486;12.176;2023-05-29T04:14:48;7.95;;;4.45;;
29044;SDS011;16133;49.486;12.176;2023-05-29T04:17:14;9.68;;;4.53;;
29044;SDS011;16133;49.486;12.176;2023-05-29T04:19:39;6.32;;;4.13;;
29044;SDS011;16133;49.486;12.176;2023-05-29T04:22:05;6.88;;;4.25;;
29044;SDS011;16133;49.486;12.176;2023-05-29T04:24:30;10.50;;;4.68;;
29044;SDS011;16133;49.486;12.176;2023-05-29T04:26:56;8.93;;;3.83;;
29044;SDS011;16133;49.486;12.176;2023-05-29T04:29:25;8.05;;;3.80;;
29044;SDS011;16133;49.486;12.176;2023-05-29T04:31:51;8.15;;;4.47;;
29044;SDS011;16133;49.486;12.176;2023-05-29T04:34:16;9.23;;;4.43;;
29044;SDS011;16133;49.486;12.176;2023-05-29T04:36:42;6.55;;;3.78;;
29044;SDS011;16133;49.486;12.176;2023-05-29T04:39:08;8.93;;;4.45;;
29044;SDS011;16133;49.486;12.176;2023-05-29T04:41:34;9.52;;;4.65;;
29044;SDS011;16133;49.486;12.176;2023-05-29T04:44:00;8.57;;;3.75;;
29044;SDS011;16133;49.486;12.176;2023-05-29T04:46:26;7.65;;;4.07;;
29044;SDS011;16133;49.486;12.176;2023-05-29T04:48:52;7.55;;;3.63;;
29044;SDS011;16133;49.486;12.176;2023-05-29T04:51:22;7.30;;;3.83;;
29044;SDS011;16133;49.486;12.176;2023-05-29T04:53:48;6.80;;;3.50;;
29044;SDS011;16133;49.486;12.176;2023-05-29T04:56:16;5.72;;;3.72;;
29044;SDS011;16133;49.486;12.176;2023-05-29T04:58:43;6.35;;;3.28;;
29044;SDS011;16133;49.486;12.176;2023-05-29T05:01:09;8.55;;;3.25;;
29044;SDS011;16133;49.486;12.176;2023-05-29T05:03:39;6.43;;;3.05;;
29044;SDS011;16133;49.486;12.176;2023-05-29T05:06:05;7.38;;;3.40;;
29044;SDS011;16133;49.486;12.176;2023-05-29T05:08:32;6.82;;;3.65;;
29044;SDS011;16133;49.486;12.176;2023-05-29T05:10:59;6.78;;;3.63;;
29044;SDS011;16133;49.486;12.176;2023-05-29T05:13:25;5.68;;;3.20;;
29044;SDS011;16133;49.486;12.176;2023-05-29T05:15:50;8.82;;;3.60;;
29044;SDS011;16133;49.486;12.176;2023-05-29T05:18:16;6.90;;;3.38;;
29044;SDS011;16133;49.486;12.176;2023-05-29T05:20:41;4.55;;;3.13;;
29044;SDS011;16133;49.486;12.176;2023-05-29T05:23:07;8.05;;;3.25;;
29044;SDS011;16133;49.486;12.176;2023-05-29T05:25:32;5.43;;;3.10;;
29044;SDS011;16133;49.486;12.176;2023-05-29T05:28:00;5.40;;;3.33;;
29044;SDS011;16133;49.486;12.176;2023-05-29T05:30:25;4.93;;;3.15;;
29044;SDS011;16133;49.486;12.176;2023-05-29T05:32:50;11.27;;;3.70;;
29044;SDS011;16133;49.486;12.176;2023-05-29T05:35:16;7.20;;;3.63;;
29044;SDS011;16133;49.486;12.176;2023-05-29T05:37:41;6.82;;;3.80;;
29044;SDS011;16133;49.486;12.176;2023-05-29T05:40:07;5.90;;;3.00;;
29044;SDS011;16133;49.486;12.176;2023-05-29T05:42:33;5.85;;;3.30;;
29044;SDS011;16133;49.486;12.176;2023-05-29T05:44:59;4.00;;;3.20;;
29044;SDS011;16133;49.486;12.176;2023-05-29T05:47:24;8.27;;;3.55;;
29044;SDS011;16133;49.486;12.176;2023-05-29T05:49:50;8.40;;;3.65;;
29044;SDS011;16133;49.486;12.176;2023-05-29T05:52:16;5.13;;;3.90;;
29044;SDS011;16133;49.486;12.176;2023-05-29T05:54:42;4.30;;;3.42;;
29044;SDS011;16133;49.486;12.176;2023-05-29T05:57:08;7.80;;;3.13;;
29044;SDS011;16133;49.486;12.176;2023-05-29T05:59:34;5.97;;;3.17;;
29044;SDS011;16133;49.486;12.176;2023-05-29T06:01:59;5.25;;;3.28;;
29044;SDS011;16133;49.486;12.176;2023-05-29T06:04:25;5.03;;;2.88;;
29044;SDS011;16133;49.486;12.176;2023-05-29T06:06:51;6.78;;;3.08;;
29044;SDS011;16133;49.486;12.176;2023-05-29T06:09:16;4.88;;;3.17;;
29044;SDS011;16133;49.486;12.176;2023-05-29T06:11:41;7.32;;;3.42;;
29044;SDS011;16133;49.486;12.176;2023-05-29T06:14:07;5.28;;;3.15;;
29044;SDS011;16133;49.486;12.176;2023-05-29T06:16:32;4.63;;;3.40;;
29044;SDS011;16133;49.486;12.176;2023-05-29T06:18:58;4.70;;;3.03;;
29044;SDS011;16133;49.486;12.176;2023-05-29T06:21:23;6.53;;;3.05;;
29044;SDS011;16133;49.486;12.176;2023-05-29T06:23:48;8.52;;;3.35;;
29044;SDS011;16133;49.486;12.176;2023-05-29T06:26:14;5.38;;;3.20;;
29044;SDS011;16133;49.486;12.176;2023-05-29T06:28:41;6.30;;;3.13;;
29044;SDS011;16133;49.486;12.176;2023-05-29T06:31:06;4.07;;;2.78;;
29044;SDS011;16133;49.486;12.176;2023-05-29T06:33:32;5.50;;;4.00;;
29044;SDS011;16133;49.486;12.176;2023-05-29T06:35:57;10.10;;;4.18;;
29044;SDS011;16133;49.486;12.176;2023-05-29T06:38:23;8.05;;;3.35;;
29044;SDS011;16133;49.486;12.176;2023-05-29T06:40:48;7.35;;;3.50;;
29044;SDS011;16133;49.486;12.176;2023-05-29T06:43:13;5.18;;;2.80;;
29044;SDS011;16133;49.486;12.176;2023-05-29T06:45:39;6.38;;;2.80;;
29044;SDS011;16133;49.486;12.176;2023-05-29T06:48:05;4.97;;;3.13;;
29044;SDS011;16133;49.486;12.176;2023-05-29T06:50:31;5.30;;;2.78;;
29044;SDS011;16133;49.486;12.176;2023-05-29T06:52:56;5.13;;;3.33;;
29044;SDS011;16133;49.486;12.176;2023-05-29T06:55:22;6.47;;;3.10;;
29044;SDS011;16133;49.486;12.176;2023-05-29T06:57:47;6.85;;;3.55;;
29044;SDS011;16133;49.486;12.176;2023-05-29T07:00:12;8.70;;;3.55;;
29044;SDS011;16133;49.486;12.176;2023-05-29T07:02:38;5.18;;;3.05;;
29044;SDS011;16133;49.486;12.176;2023-05-29T07:05:04;4.40;;;2.45;;
29044;SDS011;16133;49.486;12.176;2023-05-29T07:07:29;4.95;;;3.13;;
29044;SDS011;16133;49.486;12.176;2023-05-29T07:09:55;3.92;;;2.30;;
29044;SDS011;16133;49.486;12.176;2023-05-29T07:12:21;6.13;;;2.67;;
29044;SDS011;16133;49.486;12.176;2023-05-29T07:14:48;4.80;;;2.80;;
29044;SDS011;16133;49.486;12.176;2023-05-29T07:17:14;5.47;;;2.13;;
29044;SDS011;16133;49.486;12.176;2023-05-29T07:19:40;3.85;;;2.28;;
29044;SDS011;16133;49.486;12.176;2023-05-29T07:22:05;5.88;;;2.70;;
29044;SDS011;16133;49.486;12.176;2023-05-29T07:24:31;6.43;;;2.60;;
29044;SDS011;16133;49.486;12.176;2023-05-29T07:26:56;5.82;;;2.40;;
29044;SDS011;16133;49.486;12.176;2023-05-29T07:29:22;4.43;;;2.15;;
29044;SDS011;16133;49.486;12.176;2023-05-29T07:31:48;7.28;;;2.35;;
29044;SDS011;16133;49.486;12.176;2023-05-29T07:34:14;5.13;;;2.97;;
29044;SDS011;16133;49.486;12.176;2023-05-29T07:37:02;6.18;;;3.00;;
29044;SDS011;16133;49.486;12.176;2023-05-29T07:39:29;4.93;;;2.50;;
29044;SDS011;16133;49.486;12.176;2023-05-29T07:41:55;3.20;;;1.77;;
29044;SDS011;16133;49.486;12.176;2023-05-29T07:44:20;6.47;;;2.50;;
29044;SDS011;16133;49.486;12.176;2023-05-29T07:46:46;6.35;;;2.90;;
29044;SDS011;16133;49.486;12.176;2023-05-29T07:49:11;6.20;;;2.80;;
29044;SDS011;16133;49.486;12.176;2023-05-29T07:51:37;4.30;;;2.30;;
29044;SDS011;16133;49.486;12.176;2023-05-29T07:54:02;4.70;;;2.80;;
29044;SDS011;16133;49.486;12.176;2023-05-29T07:56:28;5.38;;;2.22;;
29044;SDS011;16133;49.486;12.176;2023-05-29T07:58:54;4.20;;;2.20;;
29044;SDS011;16133;49.486;12.176;2023-05-29T08:01:21;4.00;;;2.08;;
29044;SDS011;16133;49.486;12.176;2023-05-29T08:03:47;3.85;;;1.75;;
29044;SDS011;16133;49.486;12.176;2023-05-29T08:06:12;6.68;;;2.15;;
29044;SDS011;16133;49.486;12.176;2023-05-29T08:08:38;5.85;;;2.30;;
29044;SDS011;16133;49.486;12.176;2023-05-29T08:11:04;3.53;;;2.83;;
29044;SDS011;16133;49.486;12.176;2023-05-29T08:13:30;5.32;;;2.35;;
29044;SDS011;16133;49.486;12.176;2023-05-29T08:15:56;3.70;;;2.03;;
29044;SDS011;16133;49.486;12.176;2023-05-29T08:18:24;4.70;;;2.40;;
29044;SDS011;16133;49.486;12.176;2023-05-29T08:20:53;8.70;;;2.20;;
29044;SDS011;16133;49.486;12.176;2023-05-29T08:23:18;7.68;;;2.40;;
29044;SDS011;16133;49.486;12.176;2023-05-29T08:25:44;3.53;;;1.95;;
29044;SDS011;16133;49.486;12.176;2023-05-29T08:28:10;3.03;;;1.85;;
29044;SDS011;16133;49.486;12.176;2023-05-29T08:30:35;7.78;;;2.13;;
29044;SDS011;16133;49.486;12.176;2023-05-29T08:33:02;5.43;;;2.05;;
29044;SDS011;16133;49.486;12.176;2023-05-29T08:35:28;6.30;;;2.42;;
29044;SDS011;16133;49.486;12.176;2023-05-29T08:37:53;7.93;;;3.22;;
29044;SDS011;16133;49.486;12.176;2023-05-29T08:40:19;4.97;;;2.15;;
29044;SDS011;16133;49.486;12.176;2023-05-29T08:42:51;4.47;;;2.33;;
29044;SDS011;16133;49.486;12.176;2023-05-29T08:45:41;3.22;;;2.28;;
29044;SDS011;16133;49.486;12.176;2023-05-29T08:48:08;5.15;;;2.38;;
29044;SDS011;16133;49.486;12.176;2023-05-29T08:50:35;5.70;;;2.10;;
29044;SDS011;16133;49.486;12.176;2023-05-29T08:53:04;5.20;;;2.47;;
29044;SDS011;16133;49.486;12.176;2023-05-29T08:55:30;3.33;;;2.13;;
29044;SDS011;16133;49.486;12.176;2023-05-29T08:57:56;6.20;;;2.47;;
29044;SDS011;16133;49.486;12.176;2023-05-29T09:00:22;3.80;;;2.58;;
29044;SDS011;16133;49.486;12.176;2023-05-29T09:02:53;3.63;;;2.08;;
29044;SDS011;16133;49.486;12.176;2023-05-29T09:05:20;5.63;;;2.83;;
29044;SDS011;16133;49.486;12.176;2023-05-29T09:07:46;3.92;;;2.22;;
29044;SDS011;16133;49.486;12.176;2023-05-29T09:10:14;7.20;;;2.17;;
29044;SDS011;16133;49.486;12.176;2023-05-29T09:12:40;5.97;;;2.65;;
29044;SDS011;16133;49.486;12.176;2023-05-29T09:15:08;4.18;;;2.33;;
29044;SDS011;16133;49.486;12.176;2023-05-29T09:17:43;3.80;;;2.28;;
29044;SDS011;16133;49.486;12.176;2023-05-29T09:20:18;4.03;;;2.10;;
29044;SDS011;16133;49.486;12.176;2023-05-29T09:25:26;6.05;;;2.10;;
29044;SDS011;16133;49.486;12.176;2023-05-29T09:28:03;6.32;;;2.25;;
29044;SDS011;16133;49.486;12.176;2023-05-29T09:30:32;4.22;;;1.95;;
29044;SDS011;16133;49.486;12.176;2023-05-29T09:33:00;4.65;;;2.20;;
29044;SDS011;16133;49.486;12.176;2023-05-29T09:35:26;6.18;;;2.55;;
29044;SDS011;16133;49.486;12.176;2023-05-29T09:37:57;11.95;;;5.20;;
29044;SDS011;16133;49.486;12.176;2023-05-29T09:40:22;5.03;;;2.80;;
29044;SDS011;16133;49.486;12.176;2023-05-29T09:42:47;3.55;;;2.17;;
29044;SDS011;16133;49.486;12.176;2023-05-29T09:45:13;5.57;;;2.25;;
29044;SDS011;16133;49.486;12.176;2023-05-29T09:47:42;3.47;;;1.90;;
29044;SDS011;16133;49.486;12.176;2023-05-29T09:50:08;6.22;;;3.25;;
29044;SDS011;16133;49.486;12.176;2023-05-29T09:52:45;8.63;;;3.80;;
29044;SDS011;16133;49.486;12.176;2023-05-29T09:55:11;5.22;;;2.78;;
29044;SDS011;16133;49.486;12.176;2023-05-29T09:57:43;4.80;;;2.85;;
29044;SDS011;16133;49.486;12.176;2023-05-29T10:00:11;4.38;;;2.35;;
29044;SDS011;16133;49.486;12.176;2023-05-29T10:02:38;4.97;;;3.20;;
29044;SDS011;16133;49.486;12.176;2023-05-29T10:05:05;7.07;;;2.75;;
29044;SDS011;16133;49.486;12.176;2023-05-29T10:07:32;6.15;;;2.80;;
29044;SDS011;16133;49.486;12.176;2023-05-29T10:10:05;5.32;;;2.25;;
29044;SDS011;16133;49.486;12.176;2023-05-29T10:12:55;4.50;;;2.95;;
29044;SDS011;16133;49.486;12.176;2023-05-29T10:15:20;3.88;;;2.35;;
29044;SDS011;16133;49.486;12.176;2023-05-29T10:18:02;5.80;;;2.15;;
29044;SDS011;16133;49.486;12.176;2023-05-29T10:20:29;6.43;;;2.15;;
29044;SDS011;16133;49.486;12.176;2023-05-29T10:22:56;6.82;;;2.40;;
29044;SDS011;16133;49.486;12.176;2023-05-29T10:25:26;3.03;;;1.92;;
29044;SDS011;16133;49.486;12.176;2023-05-29T10:27:54;2.03;;;1.48;;
29044;SDS011;16133;49.486;12.176;2023-05-29T10:36:04;5.55;;;2.58;;
29044;SDS011;16133;49.486;12.176;2023-05-29T10:38:37;4.57;;;2.28;;
29044;SDS011;16133;49.486;12.176;2023-05-29T10:43:51;4.15;;;2.38;;
29044;SDS011;16133;49.486;12.176;2023-05-29T10:46:18;2.35;;;1.60;;
29044;SDS011;16133;49.486;12.176;2023-05-29T10:48:43;4.00;;;2.13;;
29044;SDS011;16133;49.486;12.176;2023-05-29T10:51:25;2.97;;;2.05;;
29044;SDS011;16133;49.486;12.176;2023-05-29T10:53:51;5.82;;;2.72;;
29044;SDS011;16133;49.486;12.176;2023-05-29T10:56:23;4.53;;;2.47;;
29044;SDS011;16133;49.486;12.176;2023-05-29T10:58:54;4.97;;;2.28;;
29044;SDS011;16133;49.486;12.176;2023-05-29T11:01:21;5.18;;;2.13;;
29044;SDS011;16133;49.486;12.176;2023-05-29T11:03:48;4.78;;;2.17;;
29044;SDS011;16133;49.486;12.176;2023-05-29T11:06:20;6.45;;;2.38;;
29044;SDS011;16133;49.486;12.176;2023-05-29T11:08:55;6.78;;;2.28;;
29044;SDS011;16133;49.486;12.176;2023-05-29T11:14:06;4.13;;;2.55;;
29044;SDS011;16133;49.486;12.176;2023-05-29T11:18:58;3.75;;;1.92;;
29044;SDS011;16133;49.486;12.176;2023-05-29T11:23:58;3.17;;;2.38;;
29044;SDS011;16133;49.486;12.176;2023-05-29T11:26:27;9.73;;;3.08;;
29044;SDS011;16133;49.486;12.176;2023-05-29T11:28:57;3.17;;;2.00;;
29044;SDS011;16133;49.486;12.176;2023-05-29T11:31:23;3.72;;;2.10;;
29044;SDS011;16133;49.486;12.176;2023-05-29T11:33:50;4.90;;;2.38;;
29044;SDS011;16133;49.486;12.176;2023-05-29T11:36:17;4.70;;;2.50;;
29044;SDS011;16133;49.486;12.176;2023-05-29T11:38:44;3.85;;;1.90;;
29044;SDS011;16133;49.486;12.176;2023-05-29T11:41:09;5.97;;;3.10;;
29044;SDS011;16133;49.486;12.176;2023-05-29T11:43:35;3.45;;;2.10;;
29044;SDS011;16133;49.486;12.176;2023-05-29T11:46:00;4.57;;;2.22;;
29044;SDS011;16133;49.486;12.176;2023-05-29T11:48:26;4.00;;;2.20;;
29044;SDS011;16133;49.486;12.176;2023-05-29T11:50:55;6.20;;;2.17;;
29044;SDS011;16133;49.486;12.176;2023-05-29T11:53:20;5.22;;;2.05;;
29044;SDS011;16133;49.486;12.176;2023-05-29T11:55:45;5.10;;;2.30;;
29044;SDS011;16133;49.486;12.176;2023-05-29T11:58:11;7.63;;;1.98;;
29044;SDS011;16133;49.486;12.176;2023-05-29T12:00:45;4.70;;;2.10;;
29044;SDS011;16133;49.486;12.176;2023-05-29T12:03:15;5.72;;;1.83;;
29044;SDS011;16133;49.486;12.176;2023-05-29T12:05:45;5.00;;;1.63;;
29044;SDS011;16133;49.486;12.176;2023-05-29T12:08:14;8.43;;;2.53;;
29044;SDS011;16133;49.486;12.176;2023-05-29T12:10:49;3.92;;;1.83;;
29044;SDS011;16133;49.486;12.176;2023-05-29T12:13:18;3.42;;;2.05;;
29044;SDS011;16133;49.486;12.176;2023-05-29T12:15:44;3.17;;;2.17;;
29044;SDS011;16133;49.486;12.176;2023-05-29T12:18:11;4.85;;;2.33;;
29044;SDS011;16133;49.486;12.176;2023-05-29T12:20:37;5.03;;;2.92;;
29044;SDS011;16133;49.486;12.176;2023-05-29T12:23:02;5.57;;;2.20;;
29044;SDS011;16133;49.486;12.176;2023-05-29T12:25:33;4.45;;;2.28;;
29044;SDS011;16133;49.486;12.176;2023-05-29T12:28:01;3.50;;;2.20;;
29044;SDS011;16133;49.486;12.176;2023-05-29T12:30:27;2.92;;;1.83;;
29044;SDS011;16133;49.486;12.176;2023-05-29T12:32:53;5.90;;;2.53;;
29044;SDS011;16133;49.486;12.176;2023-05-29T12:37:55;3.97;;;2.15;;
29044;SDS011;16133;49.486;12.176;2023-05-29T12:40:32;4.03;;;1.83;;
29044;SDS011;16133;49.486;12.176;2023-05-29T12:43:02;3.88;;;1.95;;
29044;SDS011;16133;49.486;12.176;2023-05-29T12:45:31;4.18;;;2.13;;
29044;SDS011;16133;49.486;12.176;2023-05-29T12:48:02;2.88;;;2.00;;
29044;SDS011;16133;49.486;12.176;2023-05-29T12:50:35;1.80;;;1.25;;
29044;SDS011;16133;49.486;12.176;2023-05-29T12:55:35;4.30;;;2.03;;
29044;SDS011;16133;49.486;12.176;2023-05-29T12:58:02;5.20;;;2.25;;
29044;SDS011;16133;49.486;12.176;2023-05-29T13:00:29;3.38;;;2.30;;
29044;SDS011;16133;49.486;12.176;2023-05-29T13:02:55;8.52;;;2.13;;
29044;SDS011;16133;49.486;12.176;2023-05-29T13:05:20;6.05;;;1.85;;
29044;SDS011;16133;49.486;12.176;2023-05-29T13:07:51;2.65;;;1.83;;
29044;SDS011;16133;49.486;12.176;2023-05-29T13:10:17;3.45;;;2.08;;
29044;SDS011;16133;49.486;12.176;2023-05-29T13:12:43;2.78;;;1.95;;
29044;SDS011;16133;49.486;12.176;2023-05-29T13:15:09;2.83;;;1.85;;
29044;SDS011;16133;49.486;12.176;2023-05-29T13:17:36;3.95;;;1.75;;
29044;SDS011;16133;49.486;12.176;2023-05-29T13:20:02;2.47;;;1.75;;
29044;SDS011;16133;49.486;12.176;2023-05-29T13:22:28;3.85;;;2.22;;
29044;SDS011;16133;49.486;12.176;2023-05-29T13:24:57;2.85;;;1.58;;
29044;SDS011;16133;49.486;12.176;2023-05-29T13:27:23;3.85;;;2.22;;
29044;SDS011;16133;49.486;12.176;2023-05-29T13:29:49;2.90;;;1.80;;
29044;SDS011;16133;49.486;12.176;2023-05-29T13:32:15;3.20;;;2.10;;
29044;SDS011;16133;49.486;12.176;2023-05-29T13:34:40;4.53;;;2.67;;
29044;SDS011;16133;49.486;12.176;2023-05-29T13:37:06;2.58;;;1.83;;
29044;SDS011;16133;49.486;12.176;2023-05-29T13:39:32;4.18;;;2.03;;
29044;SDS011;16133;49.486;12.176;2023-05-29T13:41:57;3.38;;;2.20;;
29044;SDS011;16133;49.486;12.176;2023-05-29T13:44:22;6.57;;;2.15;;
29044;SDS011;16133;49.486;12.176;2023-05-29T13:46:48;4.45;;;2.30;;
29044;SDS011;16133;49.486;12.176;2023-05-29T13:49:13;4.32;;;2.25;;
29044;SDS011;16133;49.486;12.176;2023-05-29T13:51:38;2.75;;;2.13;;
29044;SDS011;16133;49.486;12.176;2023-05-29T13:54:04;4.60;;;1.60;;
29044;SDS011;16133;49.486;12.176;2023-05-29T13:56:29;3.45;;;1.92;;
29044;SDS011;16133;49.486;12.176;2023-05-29T13:58:55;2.67;;;1.83;;
29044;SDS011;16133;49.486;12.176;2023-05-29T14:01:20;4.03;;;1.95;;
29044;SDS011;16133;49.486;12.176;2023-05-29T14:03:47;4.47;;;1.92;;
29044;SDS011;16133;49.486;12.176;2023-05-29T14:06:12;4.75;;;2.35;;
29044;SDS011;16133;49.486;12.176;2023-05-29T14:08:37;3.15;;;1.95;;
29044;SDS011;16133;49.486;12.176;2023-05-29T14:11:03;3.47;;;2.08;;
29044;SDS011;16133;49.486;12.176;2023-05-29T14:13:29;4.05;;;2.13;;
29044;SDS011;16133;49.486;12.176;2023-05-29T14:15:54;5.72;;;1.98;;
29044;SDS011;16133;49.486;12.176;2023-05-29T14:18:21;6.63;;;2.30;;
29044;SDS011;16133;49.486;12.176;2023-05-29T14:20:47;5.55;;;2.30;;
29044;SDS011;16133;49.486;12.176;2023-05-29T14:23:13;13.50;;;2.53;;
29044;SDS011;16133;49.486;12.176;2023-05-29T14:25:41;3.72;;;2.38;;
29044;SDS011;16133;49.486;12.176;2023-05-29T14:28:06;6.43;;;1.70;;
29044;SDS011;16133;49.486;12.176;2023-05-29T14:30:32;4.20;;;1.95;;
29044;SDS011;16133;49.486;12.176;2023-05-29T14:32:57;6.28;;;2.28;;
29044;SDS011;16133;49.486;12.176;2023-05-29T14:35:23;2.90;;;1.90;;
29044;SDS011;16133;49.486;12.176;2023-05-29T14:37:48;2.42;;;1.83;;
29044;SDS011;16133;49.486;12.176;2023-05-29T14:40:14;3.30;;;2.13;;
29044;SDS011;16133;49.486;12.176;2023-05-29T14:42:39;3.78;;;2.13;;
29044;SDS011;16133;49.486;12.176;2023-05-29T14:45:04;5.28;;;2.17;;
29044;SDS011;16133;49.486;12.176;2023-05-29T14:47:30;2.45;;;1.65;;
29044;SDS011;16133;49.486;12.176;2023-05-29T14:49:56;2.08;;;1.63;;
29044;SDS011;16133;49.486;12.176;2023-05-29T14:52:21;3.55;;;1.90;;
29044;SDS011;16133;49.486;12.176;2023-05-29T14:54:46;4.38;;;2.20;;
29044;SDS011;16133;49.486;12.176;2023-05-29T14:57:12;4.03;;;2.17;;
29044;SDS011;16133;49.486;12.176;2023-05-29T14:59:37;3.15;;;1.95;;
29044;SDS011;16133;49.486;12.176;2023-05-29T15:02:02;2.75;;;2.00;;
29044;SDS011;16133;49.486;12.176;2023-05-29T15:04:28;3.47;;;2.10;;
29044;SDS011;16133;49.486;12.176;2023-05-29T15:06:54;4.50;;;2.10;;